Time;durP1;ratioP1;P1;durP2;ratioP2;P2;SDS_P1;SDS_P2;PMS_P1;PMS_P2;Temp;Humidity;BMP_temperature;BMP_pressure;BME280_temperature;BME280_humidity;BME280_pressure;Samples;Min_cycle;Max_cycle;Signal;HPM_P1;HPM_P2
2022/04/09 00:00:23;;;;;;;;;3.00;3.00;;;;;8.57;63.25;100652.13;5061059;28;45300;-64
2022/04/09 00:02:48;;;;;;;;;4.00;4.00;;;;;8.48;63.25;100643.47;5061503;28;45294;-63
2022/04/09 00:05:15;;;;;;;;;5.25;5.25;;;;;8.65;63.34;100669.66;5061793;28;45448;-64
2022/04/09 00:07:41;;;;;;;;;5.50;3.00;;;;;8.48;63.22;100643.47;5061372;28;45432;-64
2022/04/09 00:10:08;;;;;;;;;6.50;4.00;;;;;8.61;63.50;100673.28;5055650;28;47419;-64
2022/04/09 00:12:34;;;;;;;;;4.00;4.00;;;;;8.53;63.25;100668.16;5056452;28;45470;-64
2022/04/09 00:15:00;;;;;;;;;6.00;6.00;;;;;8.48;63.43;100659.41;5064975;28;45442;-64
2022/04/09 00:17:25;;;;;;;;;7.00;7.00;;;;;8.53;63.46;100665.50;5054544;28;45228;-63
2022/04/09 00:19:52;;;;;;;;;6.75;4.50;;;;;8.60;63.13;100689.28;5060174;28;46683;-63
2022/04/09 00:22:18;;;;;;;;;3.75;3.00;;;;;8.60;63.05;100679.53;5060998;28;45321;-63
2022/04/09 00:24:43;;;;;;;;;5.75;3.50;;;;;8.48;63.22;100667.41;5056737;28;45347;-64
2022/04/09 00:27:08;;;;;;;;;5.00;4.00;;;;;8.48;63.17;100658.56;5054211;28;45299;-64
2022/04/09 00:29:34;;;;;;;;;3.00;3.00;;;;;8.40;62.96;100649.84;5061335;28;45992;-64
2022/04/09 00:32:00;;;;;;;;;3.00;3.00;;;;;8.57;63.26;100682.28;5060164;28;45236;-64
2022/04/09 00:34:25;;;;;;;;;4.00;4.00;;;;;8.64;63.11;100702.50;5061423;28;45368;-64
2022/04/09 00:36:51;;;;;;;;;4.00;3.75;;;;;8.38;63.30;100647.22;5060872;28;45347;-64
2022/04/09 00:39:16;;;;;;;;;4.00;4.00;;;;;8.58;63.05;100680.50;5061101;28;46317;-64
2022/04/09 00:41:47;;;;;;;;;4.00;4.00;;;;;8.48;62.96;100671.84;5059833;28;45302;-64
2022/04/09 00:44:19;;;;;;;;;6.75;3.25;;;;;8.52;63.36;100685.06;5048662;28;45207;-64
2022/04/09 00:46:45;;;;;;;;;3.00;3.00;;;;;8.39;63.21;100667.59;5063146;28;45535;-63
2022/04/09 00:49:12;;;;;;;;;5.00;5.00;;;;;8.41;63.92;100678.22;5059599;28;47207;-64
2022/04/09 00:51:41;;;;;;;;;4.00;3.50;;;;;8.38;63.29;100670.31;5059987;28;45319;-64
2022/04/09 00:54:06;;;;;;;;;3.00;3.00;;;;;8.50;63.53;100689.53;5060810;28;45379;-64
2022/04/09 00:56:33;;;;;;;;;3.00;3.00;;;;;8.36;63.16;100659.69;5060495;28;45436;-64
2022/04/09 00:59:01;;;;;;;;;4.00;3.25;;;;;8.46;63.33;100673.69;5060891;28;46390;-63
2022/04/09 01:01:29;;;;;;;;;6.00;5.75;;;;;8.49;63.17;100685.13;5059850;28;45344;-64
2022/04/09 01:03:55;;;;;;;;;3.75;3.75;;;;;8.46;63.24;100676.34;5059521;28;45528;-63
2022/04/09 01:06:21;;;;;;;;;3.50;3.50;;;;;8.63;63.35;100714.03;5060017;28;45508;-63
2022/04/09 01:08:47;;;;;;;;;6.50;6.50;;;;;8.58;63.19;100692.00;5056029;28;47242;-63
2022/04/09 01:11:14;;;;;;;;;4.00;3.25;;;;;8.60;63.58;100700.81;5055750;28;45894;-63
2022/04/09 01:13:41;;;;;;;;;8.25;6.50;;;;;8.65;63.71;100706.03;5059695;28;45489;-64
2022/04/09 01:16:06;;;;;;;;;7.00;7.00;;;;;8.64;63.55;100704.28;5045165;28;45553;-64
2022/04/09 01:18:33;;;;;;;;;6.25;4.00;;;;;8.56;63.33;100692.97;5058790;28;47819;-64
2022/04/09 01:21:02;;;;;;;;;3.25;3.25;;;;;8.68;63.31;100713.94;5062966;28;45486;-64
2022/04/09 01:23:28;;;;;;;;;3.50;3.50;;;;;8.53;63.25;100697.41;5060629;28;45463;-63
2022/04/09 01:25:56;;;;;;;;;3.00;3.00;;;;;8.61;63.36;100707.88;5061914;28;45578;-64
2022/04/09 01:28:22;;;;;;;;;3.00;2.00;;;;;8.65;63.39;100714.00;5072592;28;48749;-64
2022/04/09 01:30:48;;;;;;;;;2.75;2.75;;;;;8.65;63.06;100709.56;5068781;28;46145;-64
2022/04/09 01:33:17;;;;;;;;;5.50;2.00;;;;;8.75;63.01;100728.81;5051268;28;45436;-64
2022/04/09 01:35:43;;;;;;;;;1.00;1.00;;;;;8.63;62.82;100713.19;5060181;28;45295;-64
2022/04/09 01:38:09;;;;;;;;;3.00;2.00;;;;;8.68;62.70;100717.47;5059994;28;45511;-64
2022/04/09 01:40:34;;;;;;;;;2.00;2.00;;;;;8.81;62.52;100741.13;5058822;28;45468;-64
2022/04/09 01:43:00;;;;;;;;;1.00;1.00;;;;;8.68;62.78;100725.44;5059015;28;45319;-63
2022/04/09 01:45:27;;;;;;;;;2.00;1.00;;;;;8.61;62.77;100718.53;5059955;28;45321;-63
2022/04/09 01:47:53;;;;;;;;;1.00;1.00;;;;;8.85;62.21;100762.31;5058154;28;45495;-63
2022/04/09 01:50:19;;;;;;;;;1.25;1.25;;;;;8.86;62.28;100755.19;5059853;28;45228;-63
2022/04/09 01:52:44;;;;;;;;;2.00;2.00;;;;;8.92;62.52;100767.47;5058853;28;45449;-63
2022/04/09 01:55:10;;;;;;;;;2.00;1.50;;;;;8.90;62.24;100765.72;5058304;28;46193;-63
2022/04/09 01:57:35;;;;;;;;;1.25;1.25;;;;;8.87;62.36;100767.56;5059035;28;45697;-63
2022/04/09 02:00:02;;;;;;;;;1.25;1.25;;;;;8.86;62.31;100766.69;5058422;28;45415;-63
2022/04/09 02:02:28;;;;;;;;;1.00;1.00;;;;;8.85;62.55;100775.63;5072384;28;45328;-63
2022/04/09 02:04:53;;;;;;;;;3.25;3.25;;;;;8.84;62.44;100773.00;5071957;27;45914;-64
2022/04/09 02:07:19;;;;;;;;;1.50;1.50;;;;;8.71;62.72;100759.97;5072140;28;47326;-63
2022/04/09 02:09:44;;;;;;;;;3.00;2.00;;;;;8.83;62.12;100779.22;5079717;27;45440;-63
2022/04/09 02:12:10;;;;;;;;;1.50;1.50;;;;;8.83;62.23;100777.41;5059938;28;45430;-64
2022/04/09 02:14:35;;;;;;;;;1.75;1.75;;;;;8.66;62.44;100739.72;5054738;28;45513;-63
2022/04/09 02:17:01;;;;;;;;;2.25;2.00;;;;;8.70;63.04;100754.69;5041650;28;47178;-64
2022/04/09 02:19:26;;;;;;;;;1.50;1.50;;;;;8.84;62.83;100776.53;5059412;28;45371;-63
2022/04/09 02:21:51;;;;;;;;;1.25;1.25;;;;;8.77;62.83;100764.28;5063097;28;45460;-63
2022/04/09 02:24:17;;;;;;;;;2.00;1.75;;;;;8.87;62.79;100783.53;5064482;28;45339;-63
2022/04/09 02:26:42;;;;;;;;;4.00;3.00;;;;;8.77;62.64;100774.94;5042994;28;45250;-63
2022/04/09 02:29:07;;;;;;;;;2.00;1.50;;;;;8.84;62.48;100784.50;5059203;28;45251;-63
2022/04/09 02:31:33;;;;;;;;;3.00;3.00;;;;;8.83;62.54;100777.41;5063130;28;45212;-64
2022/04/09 02:33:59;;;;;;;;;3.00;3.00;;;;;8.85;62.49;100786.25;5062791;28;45346;-63
2022/04/09 02:36:24;;;;;;;;;2.50;2.50;;;;;8.83;62.66;100788.06;5062017;28;45384;-64
2022/04/09 02:38:50;;;;;;;;;4.00;4.00;;;;;8.87;62.89;100791.53;5059095;28;45189;-64
2022/04/09 02:41:15;;;;;;;;;2.50;2.50;;;;;8.78;62.22;100784.66;5071662;28;45357;-64
2022/04/09 02:43:41;;;;;;;;;3.50;3.50;;;;;8.74;62.22;100776.75;5061585;28;45564;-63
2022/04/09 02:46:07;;;;;;;;;3.75;3.75;;;;;8.86;62.49;100798.66;5061392;28;45402;-63
2022/04/09 02:48:32;;;;;;;;;6.00;3.75;;;;;8.90;62.33;100802.09;5050224;28;45319;-63
2022/04/09 02:50:57;;;;;;;;;3.50;3.00;;;;;8.88;62.05;100804.81;5061375;28;45440;-63
2022/04/09 02:53:23;;;;;;;;;2.75;2.75;;;;;8.94;62.42;100816.22;5062412;28;45441;-64
2022/04/09 02:55:48;;;;;;;;;4.00;4.00;;;;;8.78;62.50;100787.31;5061451;28;45407;-64
2022/04/09 02:58:15;;;;;;;;;8.00;5.25;;;;;8.90;62.34;100810.09;5063973;28;45822;-64
2022/04/09 03:00:40;;;;;;;;;6.00;4.25;;;;;8.74;62.46;100787.41;5062685;28;45248;-64
2022/04/09 03:03:05;;;;;;;;;3.50;3.50;;;;;8.70;62.89;100781.28;5062488;28;45342;-64
2022/04/09 03:05:31;;;;;;;;;3.75;3.75;;;;;8.84;63.00;100812.91;5062429;28;46524;-64
2022/04/09 03:07:57;;;;;;;;;6.00;6.00;;;;;8.82;62.90;100815.63;5047239;28;46334;-63
2022/04/09 03:10:23;;;;;;;;;4.00;4.00;;;;;8.86;63.03;100830.59;5053272;28;45335;-64
2022/04/09 03:12:49;;;;;;;;;3.75;3.75;;;;;8.88;62.90;100859.84;5062249;28;45308;-63
2022/04/09 03:15:15;;;;;;;;;6.25;4.75;;;;;8.68;62.87;100821.25;5053719;28;45336;-63
2022/04/09 03:17:41;;;;;;;;;4.00;4.00;;;;;8.93;62.94;100859.75;5063714;28;45512;-64
2022/04/09 03:20:08;;;;;;;;;2.75;2.75;;;;;8.68;62.68;100828.38;5069143;28;45428;-64
2022/04/09 03:22:34;;;;;;;;;3.50;3.50;;;;;8.92;62.77;100865.97;5061980;28;45540;-63
2022/04/09 03:25:01;;;;;;;;;4.00;4.00;;;;;8.73;62.51;100834.44;5061973;28;45312;-64
2022/04/09 03:27:27;;;;;;;;;4.00;4.00;;;;;8.85;62.73;100857.25;5061322;28;45579;-63
2022/04/09 03:29:53;;;;;;;;;2.75;2.75;;;;;8.89;63.01;100865.13;5062169;28;45241;-63
2022/04/09 03:32:19;;;;;;;;;3.00;3.00;;;;;8.78;62.60;100837.88;5060433;28;45504;-64
2022/04/09 03:34:45;;;;;;;;;4.75;3.25;;;;;8.53;62.76;100797.66;5061781;28;45326;-63
2022/04/09 03:37:10;;;;;;;;;2.25;2.25;;;;;8.82;62.75;100854.66;5061715;28;45467;-64
2022/04/09 03:39:37;;;;;;;;;7.00;4.75;;;;;8.68;63.19;100850.50;5067849;28;45813;-63
2022/04/09 03:42:03;;;;;;;;;3.25;3.25;;;;;8.66;62.82;100843.50;5072699;28;45556;-63
2022/04/09 03:44:29;;;;;;;;;3.00;3.00;;;;;8.48;63.02;100837.66;5053592;28;45462;-63
2022/04/09 03:47:02;;;;;;;;;3.00;2.00;;;;;8.76;62.61;100889.41;5059750;28;45354;-64
2022/04/09 03:49:32;;;;;;;;;3.00;3.00;;;;;8.67;63.00;100878.06;5060330;28;45486;-63
2022/04/09 03:51:57;;;;;;;;;3.00;3.00;;;;;8.65;63.41;100871.00;5060602;28;45549;-63
2022/04/09 03:54:23;;;;;;;;;2.25;2.00;;;;;8.72;63.24;100888.59;5060220;28;45525;-63
2022/04/09 03:56:49;;;;;;;;;7.25;4.00;;;;;8.69;63.16;100878.91;5057428;28;45299;-63
2022/04/09 03:59:15;;;;;;;;;3.00;3.00;;;;;8.70;62.91;100883.31;5061769;28;45601;-63
2022/04/09 04:01:43;;;;;;;;;4.00;4.00;;;;;8.46;62.96;100866.09;5056855;28;45523;-63
2022/04/09 04:04:10;;;;;;;;;4.75;4.00;;;;;8.52;62.81;100871.28;5059669;28;48029;-63
2022/04/09 04:06:35;;;;;;;;;3.00;3.00;;;;;8.55;62.91;100880.09;5061144;28;45321;-63
2022/04/09 04:09:01;;;;;;;;;5.75;3.00;;;;;8.61;63.49;100885.31;5056978;28;45372;-64
2022/04/09 04:11:26;;;;;;;;;4.25;3.00;;;;;8.53;63.03;100875.69;5059183;28;45173;-63
2022/04/09 04:13:51;;;;;;;;;4.00;3.00;;;;;8.45;62.34;100882.09;5061460;28;45459;-63
2022/04/09 04:16:17;;;;;;;;;4.00;3.00;;;;;8.46;62.92;100897.16;5046204;28;45247;-63
2022/04/09 04:18:43;;;;;;;;;2.00;2.00;;;;;8.22;62.73;100855.94;5069674;28;45766;-63
2022/04/09 04:21:08;;;;;;;;;2.00;2.00;;;;;8.17;62.74;100858.72;5062916;27;45424;-64
2022/04/09 04:23:34;;;;;;;;;2.00;2.00;;;;;8.35;62.64;100886.69;5049621;28;45671;-63
2022/04/09 04:26:00;;;;;;;;;2.00;2.00;;;;;8.21;63.43;100875.47;5061945;28;45716;-63
2022/04/09 04:28:25;;;;;;;;;3.25;3.25;;;;;8.32;63.07;100887.63;5059639;28;45329;-63
2022/04/09 04:30:51;;;;;;;;;3.00;3.00;;;;;8.12;62.98;100853.47;5069846;28;46378;-63
2022/04/09 04:33:16;;;;;;;;;3.25;2.50;;;;;8.27;63.37;100891.28;5084596;27;47499;-63
2022/04/09 04:35:42;;;;;;;;;5.50;3.00;;;;;8.34;63.32;100908.88;5067554;28;45506;-63
2022/04/09 04:38:08;;;;;;;;;6.25;5.50;;;;;8.34;63.21;100895.59;5072577;27;45541;-63
2022/04/09 04:40:33;;;;;;;;;3.00;3.00;;;;;8.25;63.37;100886.03;5066364;27;46768;-63
2022/04/09 04:42:58;;;;;;;;;4.00;4.00;;;;;8.06;63.16;100847.41;5057441;28;46024;-63
2022/04/09 04:45:24;;;;;;;;;3.00;3.00;;;;;8.10;62.99;100865.03;5060152;28;45483;-63
2022/04/09 04:47:50;;;;;;;;;5.25;2.00;;;;;8.30;62.78;100893.88;5057956;28;45437;-63
2022/04/09 04:50:17;;;;;;;;;4.00;3.00;;;;;8.11;62.96;100862.34;5064497;28;45767;-63
2022/04/09 04:52:43;;;;;;;;;4.00;3.00;;;;;8.30;63.54;100900.09;5057474;28;46347;-63
2022/04/09 04:55:09;;;;;;;;;4.00;3.75;;;;;8.32;63.12;100903.59;5060227;28;45248;-63
2022/04/09 04:57:41;;;;;;;;;9.00;6.00;;;;;8.32;63.48;100897.41;5061061;28;45511;-63
2022/04/09 05:00:08;;;;;;;;;5.75;5.75;;;;;8.16;63.63;100878.22;5060776;28;45409;-63
2022/04/09 05:02:34;;;;;;;;;6.25;6.25;;;;;8.24;63.43;100900.22;5079019;27;48316;-63
2022/04/09 05:05:01;;;;;;;;;5.75;4.75;;;;;8.18;63.16;100889.69;5072682;28;45354;-63
2022/04/09 05:07:42;;;;;;;;;5.25;5.25;;;;;8.20;63.47;100895.84;5053847;28;45545;-63
2022/04/09 05:10:09;;;;;;;;;7.00;6.00;;;;;8.22;63.60;100901.13;5049236;28;45311;-63
2022/04/09 05:12:36;;;;;;;;;6.00;5.00;;;;;8.31;63.70;100906.28;5046203;28;45373;-63
2022/04/09 05:15:06;;;;;;;;;3.50;3.00;;;;;8.18;63.59;100888.81;5053807;28;45686;-63
2022/04/09 05:17:31;;;;;;;;;7.00;7.00;;;;;8.34;63.54;100915.06;5054326;28;45455;-63
2022/04/09 05:19:57;;;;;;;;;7.75;4.75;;;;;8.15;63.61;100888.00;5060266;28;45587;-63
2022/04/09 05:22:22;;;;;;;;;8.00;7.00;;;;;8.38;63.69;100926.53;5055536;28;47356;-63
2022/04/09 05:24:48;;;;;;;;;7.00;7.00;;;;;8.19;63.77;100895.91;5059796;28;45358;-63
2022/04/09 05:27:13;;;;;;;;;9.00;7.00;;;;;8.35;63.67;100918.59;5060458;28;45358;-63
2022/04/09 05:29:38;;;;;;;;;8.75;5.75;;;;;8.36;63.40;100923.03;5071178;28;45514;-63
2022/04/09 05:32:05;;;;;;;;;10.75;8.50;;;;;8.36;63.66;100917.72;5058943;28;45458;-63
2022/04/09 05:34:31;;;;;;;;;8.00;6.00;;;;;8.35;63.12;100911.53;5060348;28;45713;-63
2022/04/09 05:36:56;;;;;;;;;7.00;5.00;;;;;8.11;63.45;100872.97;5059969;28;45359;-63
2022/04/09 05:39:21;;;;;;;;;7.50;7.50;;;;;8.29;63.70;100916.97;5060026;28;45387;-63
2022/04/09 05:41:47;;;;;;;;;8.25;8.25;;;;;8.26;64.02;100925.00;5055743;28;48429;-63
2022/04/09 05:44:12;;;;;;;;;9.00;8.75;;;;;8.37;63.93;100942.50;5060158;28;45433;-63
2022/04/09 05:46:38;;;;;;;;;7.00;7.00;;;;;8.30;63.72;100926.69;5059868;28;45423;-63
2022/04/09 05:49:03;;;;;;;;;9.75;8.00;;;;;8.38;63.44;100939.81;5048293;28;45435;-63
2022/04/09 05:51:29;;;;;;;;;10.50;8.50;;;;;8.29;63.85;100924.94;5056099;28;46309;-63
2022/04/09 05:53:55;;;;;;;;;8.25;8.25;;;;;8.20;63.93;100919.78;5057416;28;46225;-64
2022/04/09 05:56:21;;;;;;;;;9.75;9.75;;;;;8.10;63.46;100903.16;5058382;28;45188;-63
2022/04/09 05:58:47;;;;;;;;;14.75;9.25;;;;;8.40;63.83;100953.97;5060068;28;45442;-63
2022/04/09 06:01:12;;;;;;;;;11.00;9.25;;;;;8.38;63.80;100949.59;5058896;28;46310;-63
2022/04/09 06:03:38;;;;;;;;;9.50;9.50;;;;;8.26;63.37;100945.41;5059765;28;45268;-63
2022/04/09 06:06:04;;;;;;;;;10.25;10.25;;;;;8.34;63.58;100962.94;5057617;28;45269;-63
2022/04/09 06:08:31;;;;;;;;;9.00;8.00;;;;;8.12;63.84;100935.91;5058374;28;45502;-63
2022/04/09 06:10:57;;;;;;;;;10.00;8.75;;;;;8.30;63.94;100971.00;5058374;28;45442;-64
2022/04/09 06:13:22;;;;;;;;;10.50;10.50;;;;;8.20;64.35;100945.50;5065200;28;45454;-63
2022/04/09 06:15:47;;;;;;;;;11.50;9.75;;;;;8.22;64.50;100949.91;5042957;28;45393;-63
2022/04/09 06:18:14;;;;;;;;;11.75;9.25;;;;;8.14;64.22;100942.06;5057604;28;45759;-64
2022/04/09 06:20:40;;;;;;;;;10.50;10.50;;;;;8.31;64.59;100970.13;5074986;28;47275;-63
2022/04/09 06:23:06;;;;;;;;;10.25;8.25;;;;;8.13;64.67;100950.94;5057468;28;45413;-63
2022/04/09 06:25:32;;;;;;;;;8.75;8.25;;;;;8.32;64.39;100969.22;5046780;28;45421;-64
2022/04/09 06:27:58;;;;;;;;;10.50;10.25;;;;;8.27;64.58;100976.38;5071694;28;45260;-63
2022/04/09 06:30:23;;;;;;;;;8.75;8.75;;;;;8.22;64.09;100976.50;5054844;28;48542;-63
2022/04/09 06:32:48;;;;;;;;;9.00;9.00;;;;;8.14;64.51;100965.13;5058448;28;45504;-63
2022/04/09 06:35:14;;;;;;;;;7.00;7.00;;;;;8.37;64.62;100995.72;5058240;28;45248;-64
2022/04/09 06:37:40;;;;;;;;;12.25;12.00;;;;;8.13;64.27;100969.53;5059323;28;45468;-63
2022/04/09 06:40:09;;;;;;;;;8.00;7.75;;;;;8.23;64.49;100994.19;5058855;28;45926;-64
2022/04/09 06:42:37;;;;;;;;;12.50;9.75;;;;;8.35;64.71;101006.38;5078013;27;45468;-63
2022/04/09 06:45:04;;;;;;;;;12.00;10.25;;;;;8.21;64.77;100982.72;5057571;28;45442;-66
2022/04/09 06:47:32;;;;;;;;;10.25;10.25;;;;;8.18;64.82;100974.78;5067179;28;45306;-66
2022/04/09 06:49:57;;;;;;;;;10.00;10.00;;;;;8.10;65.18;100968.72;5051006;28;46142;-66
2022/04/09 06:52:25;;;;;;;;;13.50;11.25;;;;;8.29;65.32;100985.25;5056833;28;45583;-66
2022/04/09 06:54:55;;;;;;;;;14.75;13.75;;;;;8.27;65.32;100987.94;5058780;28;45416;-65
2022/04/09 06:57:28;;;;;;;;;4.75;4.00;;;;;8.50;65.19;101015.88;5044757;28;45473;-66
2022/04/09 06:59:57;;;;;;;;;12.00;9.00;;;;;8.33;65.57;101001.09;5056752;28;45388;-66
2022/04/09 07:02:23;;;;;;;;;7.50;6.75;;;;;8.42;65.63;101012.47;5058808;28;45369;-66
2022/04/09 07:04:53;;;;;;;;;10.00;9.00;;;;;8.24;64.74;100985.31;5059244;28;45340;-66
2022/04/09 07:07:25;;;;;;;;;7.00;7.00;;;;;8.48;65.38;101017.69;5056918;28;45562;-65
2022/04/09 07:10:04;;;;;;;;;7.00;6.00;;;;;8.45;65.54;101013.34;5046759;28;45351;-66
2022/04/09 07:12:29;;;;;;;;;7.75;7.00;;;;;8.46;65.53;101015.06;5058051;28;45617;-67
2022/04/09 07:14:55;;;;;;;;;6.00;6.00;;;;;8.57;64.72;101019.31;5059636;28;45216;-67
2022/04/09 07:17:31;;;;;;;;;;;;;;;;;;;;;
2022/04/09 07:20:04;;;;;;;;;6.75;6.75;;;;;8.56;65.32;101010.44;5059262;28;76602;-67
2022/04/09 07:22:33;;;;;;;;;5.00;5.00;;;;;8.75;64.88;101044.69;5065239;28;45671;-67
2022/04/09 07:24:59;;;;;;;;;6.00;6.00;;;;;8.35;65.40;100990.41;5078898;27;45512;-67
2022/04/09 07:27:39;;;;;;;;;7.00;6.75;;;;;8.56;65.04;101022.91;5053029;28;45430;-66
2022/04/09 07:30:16;;;;;;;;;6.00;6.00;;;;;8.50;64.76;101007.91;5058508;28;45502;-66
2022/04/09 07:32:45;;;;;;;;;8.25;7.50;;;;;8.71;65.01;101041.22;5077379;28;45398;-67
2022/04/09 07:35:19;;;;;;;;;12.00;7.00;;;;;8.47;64.20;100995.56;5060598;28;45319;-66
2022/04/09 07:37:56;;;;;;;;;7.00;5.25;;;;;8.58;64.99;101018.41;5054462;28;45402;-66
2022/04/09 07:40:36;;;;;;;;;8.00;7.00;;;;;8.62;64.50;101025.41;5060108;28;45482;-66
2022/04/09 07:43:02;;;;;;;;;10.00;7.00;;;;;8.79;64.22;101051.72;5060282;28;45767;-66
2022/04/09 07:45:30;;;;;;;;;5.25;5.25;;;;;8.82;64.64;101063.19;5056895;28;45475;-67
2022/04/09 07:47:58;;;;;;;;;6.50;6.50;;;;;8.73;65.15;101046.50;5071160;28;45742;-63
2022/04/09 07:50:25;;;;;;;;;4.50;3.50;;;;;8.57;64.68;101029.94;5068742;28;47383;-63
2022/04/09 07:52:52;;;;;;;;;5.25;5.25;;;;;8.73;64.88;101055.34;5050778;28;45510;-63
2022/04/09 07:55:17;;;;;;;;;8.50;6.75;;;;;8.76;64.98;101059.75;5051987;28;45460;-63
2022/04/09 07:57:45;;;;;;;;;9.00;6.50;;;;;8.74;65.26;101069.53;5053011;28;45385;-64
2022/04/09 08:00:11;;;;;;;;;6.75;6.75;;;;;8.63;64.88;101052.00;5049333;28;45599;-63
2022/04/09 08:02:37;;;;;;;;;7.25;6.50;;;;;8.68;64.75;101055.44;5052074;28;45718;-62
2022/04/09 08:05:03;;;;;;;;;8.25;7.25;;;;;8.70;65.04;101055.41;5055246;28;45546;-62
2022/04/09 08:07:28;;;;;;;;;4.00;4.00;;;;;8.71;64.56;101055.38;5060969;28;45354;-63
2022/04/09 08:09:54;;;;;;;;;9.00;8.00;;;;;8.81;64.88;101068.53;5060725;28;46247;-63
2022/04/09 08:12:19;;;;;;;;;4.00;4.00;;;;;8.61;64.77;101026.34;5060940;28;45346;-63
2022/04/09 08:14:45;;;;;;;;;8.50;5.50;;;;;8.81;64.43;101064.06;5058239;28;45305;-63
2022/04/09 08:17:11;;;;;;;;;7.00;5.00;;;;;8.84;64.72;101081.78;5057130;28;45409;-63
2022/04/09 08:19:37;;;;;;;;;5.25;5.25;;;;;8.84;65.04;101079.13;5066608;28;45470;-63
2022/04/09 08:22:04;;;;;;;;;5.50;5.50;;;;;8.76;65.01;101068.59;5068662;28;45511;-63
2022/04/09 08:24:29;;;;;;;;;7.00;7.00;;;;;8.84;64.15;101077.31;5059857;28;45565;-63
2022/04/09 08:26:55;;;;;;;;;7.50;5.25;;;;;8.69;63.99;101057.22;5053204;28;45370;-62
2022/04/09 08:29:20;;;;;;;;;8.00;6.75;;;;;8.70;63.63;101044.75;5059705;28;45485;-63
2022/04/09 08:31:47;;;;;;;;;11.50;7.00;;;;;8.94;64.09;101088.66;5066950;28;45431;-63
2022/04/09 08:34:14;;;;;;;;;5.25;4.00;;;;;9.02;63.77;101104.47;5057243;28;45402;-63
2022/04/09 08:36:39;;;;;;;;;7.00;5.25;;;;;8.97;63.76;101093.03;5053352;28;45216;-63
2022/04/09 08:39:05;;;;;;;;;7.75;7.50;;;;;8.84;63.40;101087.97;5059201;28;46666;-63
2022/04/09 08:41:31;;;;;;;;;5.25;5.25;;;;;8.97;63.10;101095.69;5060301;28;45775;-64
2022/04/09 08:43:56;;;;;;;;;8.50;7.75;;;;;8.99;63.96;101104.56;5057767;28;45493;-64
2022/04/09 08:46:25;;;;;;;;;6.50;5.50;;;;;8.85;63.45;101086.19;5072988;28;45786;-64
2022/04/09 08:48:51;;;;;;;;;5.00;4.50;;;;;9.09;62.85;101125.63;5079630;27;46430;-64
2022/04/09 08:51:16;;;;;;;;;5.50;4.00;;;;;9.06;63.33;101131.03;5060649;28;45386;-64
2022/04/09 08:53:44;;;;;;;;;6.75;6.75;;;;;8.78;63.06;101089.88;5049352;28;45458;-64
2022/04/09 08:56:15;;;;;;;;;5.25;5.25;;;;;9.00;63.02;101146.25;5060359;28;45663;-67
2022/04/09 08:58:40;;;;;;;;;7.50;5.25;;;;;8.88;63.12;101124.25;5063262;28;46286;-62
2022/04/09 09:01:06;;;;;;;;;7.00;7.00;;;;;8.94;63.30;101135.69;5059784;28;45256;-62
2022/04/09 09:03:35;;;;;;;;;7.00;7.00;;;;;8.95;62.92;101134.81;5072017;28;45164;-62
2022/04/09 09:06:01;;;;;;;;;7.00;7.00;;;;;8.94;62.78;101133.03;5068838;28;45603;-61
2022/04/09 09:08:45;;;;;;;;;5.25;5.25;;;;;9.05;62.94;101150.59;5065223;27;45512;-61
2022/04/09 09:11:10;;;;;;;;;7.00;7.00;;;;;9.04;63.07;101147.94;5059379;28;45288;-64
2022/04/09 09:13:54;;;;;;;;;6.25;5.25;;;;;8.97;63.13;101143.63;5059789;28;45426;-64
2022/04/09 09:16:28;;;;;;;;;6.75;4.75;;;;;8.99;62.40;101147.16;5044887;28;45630;-64
2022/04/09 09:18:57;;;;;;;;;7.75;4.50;;;;;9.07;62.72;101153.19;5059796;28;45454;-65
2022/04/09 09:21:31;;;;;;;;;4.25;4.25;;;;;9.08;62.09;101149.63;5059890;28;45402;-67
2022/04/09 09:24:09;;;;;;;;;7.25;7.00;;;;;9.09;62.33;101154.06;5059785;28;45275;-66
2022/04/09 09:26:38;;;;;;;;;4.25;4.25;;;;;8.98;62.25;101143.59;5075289;28;45573;-62
2022/04/09 09:29:04;;;;;;;;;5.50;5.50;;;;;9.08;62.97;101165.63;5059673;28;45978;-66
2022/04/09 09:31:42;;;;;;;;;9.00;7.75;;;;;9.16;62.51;101173.47;5060317;28;45644;-65
2022/04/09 09:34:13;;;;;;;;;8.00;7.00;;;;;8.99;62.30;101141.84;5056928;28;45578;-62
2022/04/09 09:36:41;;;;;;;;;7.25;5.25;;;;;9.19;62.39;101181.41;5067965;28;45425;-65
2022/04/09 09:39:09;;;;;;;;;6.00;6.00;;;;;9.07;62.42;101175.41;5058408;28;45422;-64
2022/04/09 09:41:45;;;;;;;;;6.75;6.75;;;;;9.13;62.62;101186.84;5062569;28;45624;-65
2022/04/09 09:44:10;;;;;;;;;4.75;4.75;;;;;9.17;62.82;101192.09;5064928;28;45399;-66
2022/04/09 09:46:36;;;;;;;;;3.75;3.25;;;;;9.14;62.06;101183.25;5059072;28;45159;-64
2022/04/09 09:49:01;;;;;;;;;6.25;3.75;;;;;9.14;61.33;101181.47;5057842;28;47148;-65
2022/04/09 09:51:27;;;;;;;;;6.00;6.00;;;;;9.16;61.56;101187.66;5063250;28;45229;-64
2022/04/09 09:54:11;;;;;;;;;5.50;4.25;;;;;9.11;62.05;101181.53;5058662;28;45259;-66
2022/04/09 09:56:44;;;;;;;;;7.50;7.50;;;;;9.30;61.74;101210.47;5057355;28;45956;-62
2022/04/09 09:59:14;;;;;;;;;9.00;7.00;;;;;9.15;61.10;101193.00;5058483;28;47510;-62
2022/04/09 10:01:44;;;;;;;;;5.50;4.50;;;;;9.25;60.99;101226.53;5058436;28;45887;-63
2022/04/09 10:04:12;;;;;;;;;8.00;5.50;;;;;9.13;61.38;101197.50;5055210;28;45405;-63
2022/04/09 10:06:39;;;;;;;;;9.00;9.00;;;;;9.24;60.53;101235.47;5057480;28;45240;-62
2022/04/09 10:09:06;;;;;;;;;8.50;6.75;;;;;9.03;61.24;101220.75;5058094;28;48536;-62
2022/04/09 10:11:36;;;;;;;;;9.75;8.00;;;;;9.19;61.09;101250.66;5057884;28;45311;-62
2022/04/09 10:14:05;;;;;;;;;9.00;6.75;;;;;9.16;61.46;101253.38;5041381;28;45393;-62
2022/04/09 10:16:34;;;;;;;;;10.25;10.25;;;;;9.11;61.45;101244.59;5057320;28;45288;-62
2022/04/09 10:19:01;;;;;;;;;8.00;7.50;;;;;9.12;61.64;101241.00;5059047;28;46160;-62
2022/04/09 10:21:29;;;;;;;;;10.00;9.25;;;;;9.16;61.91;101245.38;5059607;28;45628;-62
2022/04/09 10:23:59;;;;;;;;;9.25;9.25;;;;;9.24;61.18;101259.44;5055163;28;45349;-62
2022/04/09 10:26:28;;;;;;;;;9.00;9.00;;;;;9.23;61.07;101247.00;5054249;28;45570;-63
2022/04/09 10:29:04;;;;;;;;;7.50;7.50;;;;;9.07;61.13;101210.00;5052653;28;47057;-62
2022/04/09 10:31:29;;;;;;;;;6.75;6.75;;;;;9.36;60.82;101253.88;5040174;28;45449;-62
2022/04/09 10:33:56;;;;;;;;;7.50;7.50;;;;;9.28;60.77;101247.81;5058918;28;45407;-62
2022/04/09 10:36:40;;;;;;;;;11.25;8.00;;;;;9.36;61.07;101259.19;5043330;28;45842;-61
2022/04/09 10:39:21;;;;;;;;;7.75;7.50;;;;;9.38;60.74;101276.03;5059751;28;46338;-61
2022/04/09 10:41:47;;;;;;;;;9.00;8.75;;;;;9.25;60.60;101247.84;5055838;28;45399;-61
2022/04/09 10:44:33;;;;;;;;;11.50;8.00;;;;;9.42;60.77;101282.16;5049954;28;45865;-61
2022/04/09 10:47:01;;;;;;;;;7.75;7.50;;;;;9.41;60.72;101278.63;5042861;28;45600;-61
2022/04/09 10:49:28;;;;;;;;;6.00;5.50;;;;;9.44;60.86;101277.72;5073198;28;46857;-61
2022/04/09 10:52:11;;;;;;;;;8.00;8.00;;;;;9.37;61.03;101282.28;5058483;28;46303;-61
2022/04/09 10:54:43;;;;;;;;;9.75;9.00;;;;;9.42;61.52;101287.50;5042364;28;45600;-61
2022/04/09 10:57:23;;;;;;;;;8.25;7.00;;;;;9.41;61.23;101291.97;5052200;28;45461;-60
2022/04/09 10:59:56;;;;;;;;;10.50;9.25;;;;;9.40;61.48;101286.66;5051733;28;46005;-60
2022/04/09 11:02:23;;;;;;;;;8.00;8.00;;;;;9.41;61.00;101285.75;5058739;28;45483;-61
2022/04/09 11:04:48;;;;;;;;;10.25;9.00;;;;;9.43;60.84;101282.13;5057420;28;45819;-61
2022/04/09 11:07:16;;;;;;;;;9.25;8.25;;;;;9.38;61.10;101283.16;5064444;28;45543;-61
2022/04/09 11:09:43;;;;;;;;;8.25;8.00;;;;;9.35;61.34;101276.06;5073246;27;46671;-61
2022/04/09 11:12:09;;;;;;;;;11.00;10.00;;;;;9.34;61.20;101289.41;5050198;28;45714;-61
2022/04/09 11:14:48;;;;;;;;;9.25;9.25;;;;;9.32;61.59;101292.16;5057762;28;45469;-61
2022/04/09 11:17:40;;;;;;;;;7.25;7.25;;;;;9.41;61.01;101301.75;5055330;28;45430;-61
2022/04/09 11:20:11;;;;;;;;;9.75;9.00;;;;;9.43;61.00;101306.13;5049530;28;46123;-61
2022/04/09 11:22:47;;;;;;;;;20.50;16.25;;;;;9.44;61.46;101302.56;5052012;28;45399;-59
2022/04/09 11:25:24;;;;;;;;;10.50;10.00;;;;;9.38;61.24;101297.34;5056929;28;45386;-61
2022/04/09 11:27:51;;;;;;;;;8.00;8.00;;;;;9.42;60.94;101307.06;5058270;28;45490;-61
2022/04/09 11:30:17;;;;;;;;;8.50;8.25;;;;;9.42;61.40;101314.13;5057749;28;46135;-61
2022/04/09 11:32:42;;;;;;;;;10.00;10.00;;;;;9.37;61.10;101300.03;5065916;28;46124;-61
2022/04/09 11:35:11;;;;;;;;;9.00;9.00;;;;;9.45;60.63;101308.75;5071934;28;45514;-61